Time;durP1;ratioP1;P1;durP2;ratioP2;P2;SDS_P1;SDS_P2;PMS_P1;PMS_P2;Temp;Humidity;BMP_temperature;BMP_pressure;BME280_temperature;BME280_humidity;BME280_pressure;Samples;Min_cycle;Max_cycle;Signal;HPM_P1;HPM_P2
2023/10/30 00:00:47;;;;;;;4.63;1.80;;;12.50;99.90;;;;;;5006762;28;20133;-93
2023/10/30 00:03:16;;;;;;;3.45;2.15;;;12.40;99.90;;;;;;5022791;28;20029;-92
2023/10/30 00:05:42;;;;;;;4.00;1.38;;;12.40;99.90;;;;;;5004430;28;20042;-91
2023/10/30 00:08:08;;;;;;;5.97;1.23;;;12.40;99.90;;;;;;5002287;28;20064;-91
2023/10/30 00:10:36;;;;;;;2.45;0.88;;;12.40;99.90;;;;;;5020423;28;20072;-91
2023/10/30 00:13:02;;;;;;;2.20;1.30;;;12.40;99.90;;;;;;5020013;28;20017;-92
2023/10/30 00:15:28;;;;;;;2.03;0.98;;;12.40;99.90;;;;;;5020205;28;20022;-91
2023/10/30 00:17:54;;;;;;;1.75;0.95;;;12.40;99.90;;;;;;5018381;28;20022;-91
2023/10/30 00:20:19;;;;;;;2.17;1.15;;;12.30;99.90;;;;;;5000065;28;20030;-93
2023/10/30 00:22:45;;;;;;;3.22;1.35;;;12.30;99.90;;;;;;5020217;28;20097;-92
2023/10/30 00:25:11;;;;;;;3.97;1.00;;;12.30;99.90;;;;;;5019844;28;20053;-93
2023/10/30 00:27:37;;;;;;;3.63;1.58;;;12.30;99.90;;;;;;5018961;28;20022;-93
2023/10/30 00:30:03;;;;;;;1.80;0.95;;;12.20;99.90;;;;;;5018595;28;20538;-91
2023/10/30 00:32:30;;;;;;;2.15;0.82;;;12.20;99.90;;;;;;5017432;28;20014;-91
2023/10/30 00:34:56;;;;;;;2.90;1.20;;;12.20;99.90;;;;;;4999920;28;20045;-90
2023/10/30 00:37:23;;;;;;;2.13;1.33;;;12.20;99.90;;;;;;5017131;28;20034;-93
2023/10/30 00:39:48;;;;;;;2.17;0.85;;;12.20;99.90;;;;;;4999909;28;20460;-91
2023/10/30 00:42:14;;;;;;;1.17;0.50;;;12.20;99.90;;;;;;5017430;28;20029;-90
2023/10/30 00:44:40;;;;;;;3.47;1.20;;;12.20;99.90;;;;;;5017794;28;20061;-90
2023/10/30 00:47:05;;;;;;;2.90;1.30;;;12.20;99.90;;;;;;5020617;28;20057;-92
2023/10/30 00:49:31;;;;;;;3.80;1.08;;;12.20;99.90;;;;;;4997113;28;20019;-91
2023/10/30 00:51:57;;;;;;;1.52;0.82;;;12.10;99.90;;;;;;5003965;28;20105;-92
2023/10/30 00:54:23;;;;;;;3.70;1.33;;;12.10;99.90;;;;;;5022555;28;20034;-91
2023/10/30 00:56:48;;;;;;;1.35;1.08;;;12.10;99.90;;;;;;5021947;28;20709;-92
2023/10/30 00:59:14;;;;;;;2.03;0.80;;;12.10;99.90;;;;;;5022516;28;20392;-91
2023/10/30 01:01:40;;;;;;;6.07;1.92;;;12.10;99.90;;;;;;5021809;28;20037;-92
2023/10/30 01:04:07;;;;;;;2.80;1.33;;;12.10;99.90;;;;;;5022091;28;20365;-91
2023/10/30 01:06:33;;;;;;;5.03;1.35;;;12.10;99.90;;;;;;5022121;28;20028;-92
2023/10/30 01:08:59;;;;;;;1.33;0.98;;;12.00;99.90;;;;;;5002884;28;20033;-91
2023/10/30 01:11:25;;;;;;;3.00;1.13;;;12.00;99.90;;;;;;5021989;28;20030;-93
2023/10/30 01:13:50;;;;;;;4.15;1.88;;;12.00;99.90;;;;;;5022298;28;20022;-91
2023/10/30 01:16:16;;;;;;;7.25;1.17;;;12.00;99.90;;;;;;5022489;28;20029;-92
2023/10/30 01:18:42;;;;;;;4.47;0.68;;;12.00;99.90;;;;;;5021557;28;20042;-92
2023/10/30 01:21:12;;;;;;;3.50;1.27;;;12.00;99.90;;;;;;5022259;28;20044;-92
2023/10/30 01:23:37;;;;;;;3.22;0.95;;;11.90;99.90;;;;;;5021332;28;20022;-91
2023/10/30 01:26:03;;;;;;;1.65;0.93;;;11.90;99.90;;;;;;5021800;28;20026;-91
2023/10/30 01:28:29;;;;;;;2.95;1.27;;;11.90;99.90;;;;;;5016510;28;20046;-91
2023/10/30 01:30:55;;;;;;;3.75;1.77;;;11.90;99.90;;;;;;5021366;28;20014;-91
2023/10/30 01:33:21;;;;;;;4.18;1.15;;;11.80;99.90;;;;;;5021119;28;20052;-92
2023/10/30 01:35:47;;;;;;;1.95;0.90;;;11.90;99.90;;;;;;5022481;28;20017;-89
2023/10/30 01:38:12;;;;;;;1.17;1.08;;;11.90;99.90;;;;;;5021284;28;20030;-92
2023/10/30 01:40:49;;;;;;;1.08;0.80;;;11.90;99.90;;;;;;5020169;28;20037;-91
2023/10/30 01:43:15;;;;;;;2.45;1.00;;;11.90;99.90;;;;;;5021752;28;20033;-92
2023/10/30 01:45:41;;;;;;;5.03;1.17;;;11.90;99.90;;;;;;5021645;28;20032;-92
2023/10/30 01:48:07;;;;;;;2.97;1.85;;;11.90;99.90;;;;;;5003111;28;20046;-92
2023/10/30 01:50:33;;;;;;;1.95;1.20;;;12.00;99.90;;;;;;5021263;28;20022;-92
2023/10/30 01:52:59;;;;;;;2.00;1.15;;;12.00;99.90;;;;;;5021715;28;20024;-93
2023/10/30 01:55:25;;;;;;;2.10;0.93;;;12.00;99.90;;;;;;5022169;28;20048;-92
2023/10/30 01:57:51;;;;;;;3.85;0.85;;;12.00;99.90;;;;;;5020576;28;20034;-92
2023/10/30 02:00:17;;;;;;;1.67;1.02;;;12.10;99.90;;;;;;5022360;28;20083;-92
2023/10/30 02:02:43;;;;;;;2.00;1.23;;;12.10;99.90;;;;;;5022621;28;20030;-92
2023/10/30 02:05:09;;;;;;;1.75;0.80;;;12.10;99.90;;;;;;5020973;28;20085;-91
2023/10/30 02:07:36;;;;;;;1.27;0.82;;;12.10;99.90;;;;;;5021262;28;20029;-93
2023/10/30 02:10:05;;;;;;;1.15;0.95;;;12.10;99.90;;;;;;5020962;28;20026;-92
2023/10/30 02:12:31;;;;;;;1.50;1.20;;;12.10;99.90;;;;;;5021714;28;20114;-91
2023/10/30 02:14:56;;;;;;;2.40;1.42;;;12.20;99.90;;;;;;5022121;28;20125;-91
2023/10/30 02:17:22;;;;;;;1.33;0.82;;;12.20;99.90;;;;;;5021260;28;20037;-93
2023/10/30 02:19:48;;;;;;;2.55;0.90;;;12.20;99.90;;;;;;5008823;28;20026;-92
2023/10/30 02:22:13;;;;;;;1.25;1.08;;;12.20;99.90;;;;;;5020209;28;20030;-91
2023/10/30 02:24:39;;;;;;;1.52;1.33;;;12.10;99.90;;;;;;4994791;28;20030;-92
2023/10/30 02:27:04;;;;;;;3.83;1.80;;;12.10;99.90;;;;;;5013400;28;20068;-92
2023/10/30 02:29:30;;;;;;;2.35;1.63;;;12.10;99.90;;;;;;5017590;28;20037;-92
2023/10/30 02:31:56;;;;;;;1.00;1.00;;;12.10;99.90;;;;;;5001019;28;20029;-94
2023/10/30 02:34:21;;;;;;;2.00;1.15;;;12.10;99.90;;;;;;5001666;28;20022;-91
2023/10/30 02:36:47;;;;;;;1.50;1.27;;;12.10;99.90;;;;;;5002149;28;20044;-92
2023/10/30 02:39:13;;;;;;;3.47;0.90;;;12.10;99.90;;;;;;5019000;28;20076;-92
2023/10/30 02:41:38;;;;;;;1.83;0.88;;;12.00;99.90;;;;;;5020519;28;20122;-91
2023/10/30 02:44:04;;;;;;;1.88;1.00;;;11.90;99.90;;;;;;5021236;28;20022;-92
2023/10/30 02:46:30;;;;;;;1.92;0.77;;;11.90;99.90;;;;;;5021975;28;20033;-92
2023/10/30 02:48:56;;;;;;;1.73;0.90;;;12.00;99.90;;;;;;5003833;28;20020;-92
2023/10/30 02:51:21;;;;;;;4.90;1.08;;;11.90;99.90;;;;;;5020666;28;20029;-91
2023/10/30 02:53:47;;;;;;;1.50;0.95;;;11.90;99.90;;;;;;5019932;28;20053;-92
2023/10/30 02:56:13;;;;;;;1.50;1.00;;;11.80;99.90;;;;;;5020683;28;20101;-92
2023/10/30 02:58:38;;;;;;;4.60;1.70;;;11.80;99.90;;;;;;5000015;28;20121;-92
2023/10/30 03:01:04;;;;;;;3.97;1.25;;;11.80;99.90;;;;;;5020227;28;20579;-90
2023/10/30 03:03:30;;;;;;;2.40;0.75;;;11.80;99.90;;;;;;5019818;28;20022;-92
2023/10/30 03:05:56;;;;;;;1.63;0.82;;;11.80;99.90;;;;;;5020306;28;20065;-91
2023/10/30 03:08:21;;;;;;;2.15;1.15;;;11.80;99.90;;;;;;5019150;28;20022;-91
2023/10/30 03:10:48;;;;;;;3.53;1.08;;;11.80;99.90;;;;;;5020369;28;20033;-92
2023/10/30 03:13:13;;;;;;;3.28;1.42;;;11.70;99.90;;;;;;5021482;28;20172;-92
2023/10/30 03:15:40;;;;;;;3.15;1.45;;;11.70;99.90;;;;;;5019460;28;20057;-91
2023/10/30 03:18:06;;;;;;;1.75;1.00;;;11.70;99.90;;;;;;5000504;28;20037;-90
2023/10/30 03:20:31;;;;;;;2.58;0.95;;;11.70;99.90;;;;;;5014575;28;20034;-89
2023/10/30 03:22:57;;;;;;;3.65;1.08;;;11.70;99.90;;;;;;5018168;28;20034;-92
2023/10/30 03:25:23;;;;;;;1.38;1.02;;;11.70;99.90;;;;;;5017869;28;20029;-90
2023/10/30 03:27:48;;;;;;;1.83;1.45;;;11.70;99.90;;;;;;5018041;28;20032;-91
2023/10/30 03:30:15;;;;;;;2.40;0.85;;;11.70;99.90;;;;;;4999713;28;20045;-93
2023/10/30 03:32:41;;;;;;;1.27;1.15;;;11.60;99.90;;;;;;5018733;28;20026;-92
2023/10/30 03:35:07;;;;;;;1.60;0.85;;;11.60;99.90;;;;;;5019612;28;20029;-93
2023/10/30 03:37:32;;;;;;;2.13;1.17;;;11.70;99.90;;;;;;5019357;28;20105;-92
2023/10/30 03:39:58;;;;;;;1.35;1.25;;;11.60;99.90;;;;;;5018743;28;20030;-91
2023/10/30 03:42:24;;;;;;;3.13;0.95;;;11.60;99.90;;;;;;5019694;28;20030;-92
2023/10/30 03:44:50;;;;;;;2.72;1.27;;;11.60;99.90;;;;;;5020446;28;20068;-92
2023/10/30 03:47:15;;;;;;;3.13;1.05;;;11.60;99.90;;;;;;5020309;28;20030;-91
2023/10/30 03:49:41;;;;;;;1.55;0.70;;;11.60;99.90;;;;;;5019366;28;20033;-93
2023/10/30 03:52:06;;;;;;;4.30;1.15;;;11.60;99.90;;;;;;5020150;28;20085;-92
2023/10/30 03:54:32;;;;;;;3.08;0.98;;;11.60;99.90;;;;;;5020393;28;20056;-92
2023/10/30 03:56:58;;;;;;;1.42;0.95;;;11.60;99.90;;;;;;5018129;28;20034;-91
2023/10/30 03:59:23;;;;;;;2.20;0.82;;;11.60;99.90;;;;;;5019661;28;20076;-91
2023/10/30 04:01:49;;;;;;;2.10;1.13;;;11.60;99.90;;;;;;5019869;28;20022;-93
2023/10/30 04:04:15;;;;;;;3.47;1.25;;;11.60;99.90;;;;;;5019982;28;20084;-92
2023/10/30 04:06:41;;;;;;;1.73;1.38;;;11.60;99.90;;;;;;5020165;28;20021;-92
2023/10/30 04:09:07;;;;;;;3.92;2.35;;;11.60;99.90;;;;;;5001739;28;20029;-92
2023/10/30 04:11:33;;;;;;;3.83;1.25;;;11.60;99.90;;;;;;5019634;28;20029;-92
2023/10/30 04:13:59;;;;;;;2.42;1.67;;;11.60;99.90;;;;;;5019926;28;20130;-92
2023/10/30 04:16:25;;;;;;;1.85;1.23;;;11.60;99.90;;;;;;5016398;28;20504;-91
2023/10/30 04:18:50;;;;;;;4.05;1.20;;;11.60;99.90;;;;;;5019226;28;20037;-91
2023/10/30 04:21:16;;;;;;;2.88;1.45;;;11.60;99.90;;;;;;5017698;28;20026;-92
2023/10/30 04:23:44;;;;;;;1.52;1.00;;;11.60;99.90;;;;;;5018126;28;20030;-92
2023/10/30 04:26:10;;;;;;;1.50;0.82;;;11.60;99.90;;;;;;5018187;28;20041;-92
2023/10/30 04:28:36;;;;;;;3.50;0.88;;;11.50;99.90;;;;;;5021589;28;20026;-92
2023/10/30 04:31:04;;;;;;;2.00;0.98;;;11.50;99.90;;;;;;5004992;28;20045;-91
2023/10/30 04:33:29;;;;;;;;;;;11.50;99.90;;;;;;5021870;28;20018;-90
2023/10/30 04:35:55;;;;;;;1.40;1.30;;;11.50;99.90;;;;;;5022319;28;19912;-91
2023/10/30 04:38:24;;;;;;;3.50;0.70;;;11.50;99.90;;;;;;5021561;28;20036;-91
2023/10/30 04:40:50;;;;;;;1.80;1.23;;;11.50;99.90;;;;;;5022801;28;20021;-91
2023/10/30 04:43:15;;;;;;;1.52;0.70;;;11.50;99.90;;;;;;5022330;28;20022;-91
2023/10/30 04:45:41;;;;;;;1.67;1.58;;;11.50;99.90;;;;;;5024640;28;20026;-90
2023/10/30 04:48:07;;;;;;;1.48;1.23;;;11.50;99.90;;;;;;5005786;28;20033;-90
2023/10/30 04:50:32;;;;;;;1.35;0.95;;;11.50;99.90;;;;;;5021635;28;20041;-91
2023/10/30 04:52:58;;;;;;;3.30;1.00;;;11.50;99.90;;;;;;5021447;28;20049;-91
2023/10/30 04:55:24;;;;;;;1.58;1.25;;;11.60;99.90;;;;;;5022316;28;20034;-91
2023/10/30 04:57:49;;;;;;;1.45;0.73;;;11.50;99.90;;;;;;5024542;28;20030;-92
2023/10/30 05:00:15;;;;;;;2.28;0.50;;;11.50;99.90;;;;;;5023574;28;20029;-91
2023/10/30 05:02:42;;;;;;;1.48;0.85;;;11.60;99.90;;;;;;5023504;28;20034;-92
2023/10/30 05:05:08;;;;;;;0.70;0.70;;;11.60;99.90;;;;;;5023823;28;20032;-91
2023/10/30 05:07:34;;;;;;;1.25;0.75;;;11.60;99.90;;;;;;5021548;28;20018;-92
2023/10/30 05:10:00;;;;;;;1.23;1.13;;;11.60;99.90;;;;;;5023405;28;20045;-92
2023/10/30 05:12:25;;;;;;;0.80;0.55;;;11.60;99.90;;;;;;5009772;28;20026;-93
2023/10/30 05:14:51;;;;;;;1.67;0.80;;;11.60;99.90;;;;;;5021175;28;20026;-92
2023/10/30 05:17:17;;;;;;;1.83;0.93;;;11.70;99.90;;;;;;5021209;28;20033;-93
2023/10/30 05:19:43;;;;;;;1.33;1.17;;;11.70;99.90;;;;;;5002287;28;20081;-91
2023/10/30 05:22:09;;;;;;;2.67;2.38;;;11.70;99.90;;;;;;5009072;28;20009;-93
2023/10/30 05:24:34;;;;;;;3.38;1.42;;;11.70;99.90;;;;;;5023313;28;20040;-91
2023/10/30 05:27:00;;;;;;;1.80;1.05;;;11.70;99.90;;;;;;5024723;28;20033;-92
2023/10/30 05:29:26;;;;;;;3.10;1.80;;;11.70;99.90;;;;;;5028326;28;20030;-91
2023/10/30 05:31:51;;;;;;;2.33;1.30;;;11.70;99.90;;;;;;5023973;28;20029;-92
2023/10/30 05:34:17;;;;;;;3.08;1.63;;;11.70;99.90;;;;;;5021184;28;20033;-91
2023/10/30 05:36:43;;;;;;;1.17;0.98;;;11.60;99.90;;;;;;5021949;28;20034;-94
2023/10/30 05:39:08;;;;;;;2.03;1.20;;;11.70;99.90;;;;;;5019821;28;20029;-92
2023/10/30 05:41:34;;;;;;;2.17;1.30;;;11.70;99.90;;;;;;5020484;28;20030;-92
2023/10/30 05:44:00;;;;;;;3.85;2.90;;;11.70;99.90;;;;;;5020912;28;20083;-94
2023/10/30 05:46:25;;;;;;;4.20;2.38;;;11.60;99.90;;;;;;5022142;28;20085;-93
2023/10/30 05:48:51;;;;;;;13.60;9.55;;;11.60;99.90;;;;;;5022696;28;20269;-93
2023/10/30 05:51:17;;;;;;;3.00;2.53;;;11.70;99.90;;;;;;5021520;28;20053;-92
2023/10/30 05:53:43;;;;;;;6.97;4.40;;;11.60;99.90;;;;;;5029366;28;20041;-92
2023/10/30 05:56:08;;;;;;;8.15;4.40;;;11.60;99.90;;;;;;5019796;28;20030;-92
2023/10/30 05:58:34;;;;;;;5.13;4.32;;;11.70;99.90;;;;;;5019210;28;20029;-94
2023/10/30 06:01:00;;;;;;;3.50;1.80;;;11.70;99.90;;;;;;5020495;28;20156;-93
2023/10/30 06:03:25;;;;;;;25.98;23.35;;;11.70;99.90;;;;;;5020131;28;20031;-92
2023/10/30 06:05:51;;;;;;;3.33;2.20;;;11.70;99.90;;;;;;5021165;28;20033;-93
2023/10/30 06:08:22;;;;;;;3.13;2.20;;;11.60;99.90;;;;;;5015713;28;20018;-93
2023/10/30 06:10:47;;;;;;;4.03;3.40;;;11.60;99.90;;;;;;5019508;28;20014;-93
2023/10/30 06:13:13;;;;;;;3.50;2.42;;;11.60;99.90;;;;;;5021003;28;20033;-93
2023/10/30 06:15:39;;;;;;;3.85;2.15;;;11.60;99.90;;;;;;5025038;28;20026;-92
2023/10/30 06:18:05;;;;;;;5.15;2.13;;;11.70;99.90;;;;;;5017463;28;20099;-93
2023/10/30 06:20:30;;;;;;;13.48;12.30;;;11.60;99.90;;;;;;5018564;28;20053;-92
2023/10/30 06:22:59;;;;;;;5.45;4.80;;;11.60;99.90;;;;;;5000880;28;20026;-92
2023/10/30 06:25:25;;;;;;;7.25;4.32;;;11.60;99.90;;;;;;5018572;28;20018;-91
2023/10/30 06:27:51;;;;;;;5.50;3.42;;;11.60;99.90;;;;;;5019150;28;20096;-93
2023/10/30 06:30:17;;;;;;;7.22;6.18;;;11.60;99.90;;;;;;5018920;28;20075;-91
2023/10/30 06:32:44;;;;;;;8.13;4.72;;;11.60;99.90;;;;;;5018510;28;20102;-92
2023/10/30 06:35:10;;;;;;;7.25;6.55;;;11.60;99.90;;;;;;5000299;28;20037;-91
2023/10/30 06:37:36;;;;;;;6.32;4.50;;;11.70;99.90;;;;;;5018175;28;20022;-91
2023/10/30 06:40:03;;;;;;;9.70;5.55;;;11.70;99.90;;;;;;5017710;28;20101;-94
2023/10/30 06:42:28;;;;;;;4.60;3.65;;;11.80;99.90;;;;;;5021088;28;20065;-92
2023/10/30 06:44:54;;;;;;;6.88;4.88;;;11.80;99.90;;;;;;5018965;28;20022;-91
2023/10/30 06:47:20;;;;;;;5.05;4.55;;;11.80;99.90;;;;;;5021522;28;20025;-93
2023/10/30 06:49:45;;;;;;;5.25;3.10;;;11.80;99.90;;;;;;5020072;28;20505;-92
2023/10/30 06:52:11;;;;;;;4.05;2.63;;;11.80;99.90;;;;;;5024437;28;20298;-93
2023/10/30 06:54:37;;;;;;;3.10;2.08;;;11.80;99.90;;;;;;5020281;28;20037;-93
2023/10/30 06:57:02;;;;;;;2.10;1.80;;;11.80;99.90;;;;;;5018848;28;20030;-92
2023/10/30 06:59:28;;;;;;;2.85;2.17;;;11.90;99.90;;;;;;5021216;28;20021;-92
2023/10/30 07:01:54;;;;;;;3.28;1.67;;;11.90;99.90;;;;;;5022687;28;20041;-94
2023/10/30 07:04:22;;;;;;;3.22;2.25;;;11.90;99.90;;;;;;5019315;28;20026;-93
2023/10/30 07:06:48;;;;;;;2.67;2.38;;;11.90;99.90;;;;;;5020285;28;20095;-94
2023/10/30 07:09:15;;;;;;;3.42;1.80;;;12.00;99.90;;;;;;5022940;28;20544;-92
2023/10/30 07:11:40;;;;;;;3.30;1.35;;;12.10;99.90;;;;;;5019253;28;20014;-93
2023/10/30 07:14:08;;;;;;;1.45;1.30;;;12.10;99.90;;;;;;5019791;28;20559;-93
2023/10/30 07:16:34;;;;;;;1.55;1.35;;;12.20;99.90;;;;;;5019407;28;20056;-92
2023/10/30 07:19:00;;;;;;;1.45;1.08;;;12.20;99.90;;;;;;5015204;28;20021;-92
2023/10/30 07:21:28;;;;;;;1.38;0.88;;;12.20;99.90;;;;;;5016425;28;20060;-92
2023/10/30 07:23:54;;;;;;;1.75;1.20;;;12.30;99.90;;;;;;5016964;28;20037;-91
2023/10/30 07:26:21;;;;;;;2.20;1.15;;;12.30;99.90;;;;;;5017326;28;20171;-90
2023/10/30 07:28:50;;;;;;;1.42;1.33;;;12.30;99.90;;;;;;5017784;28;20041;-92
2023/10/30 07:31:19;;;;;;;1.70;0.80;;;12.30;99.90;;;;;;5018029;28;20059;-92
2023/10/30 07:33:49;;;;;;;1.55;1.33;;;12.30;99.90;;;;;;5017771;28;20056;-92
2023/10/30 07:36:15;;;;;;;2.40;1.30;;;12.30;99.90;;;;;;5018764;28;20049;-92
2023/10/30 07:38:41;;;;;;;1.10;0.90;;;12.40;99.90;;;;;;5000298;28;20084;-91
2023/10/30 07:41:08;;;;;;;1.55;1.45;;;12.40;99.90;;;;;;5018724;28;20057;-92
2023/10/30 07:43:34;;;;;;;2.78;1.63;;;12.50;99.90;;;;;;5019325;28;20037;-92
2023/10/30 07:46:00;;;;;;;4.65;2.22;;;12.70;99.90;;;;;;5019280;28;20030;-94
2023/10/30 07:48:28;;;;;;;2.75;1.50;;;12.70;99.90;;;;;;5000400;28;20404;-92
2023/10/30 07:50:54;;;;;;;2.30;1.85;;;12.80;99.90;;;;;;5018800;28;20419;-93
2023/10/30 07:53:20;;;;;;;2.28;1.85;;;12.90;99.90;;;;;;5019073;28;20030;-92
2023/10/30 07:55:46;;;;;;;5.10;3.13;;;13.00;99.90;;;;;;5020169;28;20033;-93
2023/10/30 07:58:12;;;;;;;2.20;1.75;;;13.10;99.90;;;;;;5018214;28;20022;-93
2023/10/30 08:00:38;;;;;;;2.15;1.95;;;13.10;99.90;;;;;;5015897;28;20022;-91
2023/10/30 08:03:06;;;;;;;1.38;1.02;;;13.10;99.90;;;;;;5021702;28;20014;-91
2023/10/30 08:05:32;;;;;;;1.75;1.13;;;12.90;99.90;;;;;;5022332;28;20037;-92
2023/10/30 08:07:58;;;;;;;2.20;1.40;;;12.90;99.90;;;;;;5003726;28;20083;-91
2023/10/30 08:10:24;;;;;;;3.15;1.58;;;12.80;99.90;;;;;;5021380;28;20030;-96
2023/10/30 08:12:50;;;;;;;2.00;1.55;;;12.80;99.90;;;;;;5022179;28;20033;-92
2023/10/30 08:15:15;;;;;;;3.38;1.40;;;12.80;99.90;;;;;;5022553;28;20026;-92
2023/10/30 08:17:41;;;;;;;2.90;1.70;;;12.90;99.90;;;;;;5023230;28;20033;-92
2023/10/30 08:20:09;;;;;;;1.98;1.30;;;12.90;99.90;;;;;;5022942;28;20105;-92
2023/10/30 08:22:35;;;;;;;3.00;2.33;;;13.00;99.90;;;;;;5023238;28;20034;-92
2023/10/30 08:25:02;;;;;;;2.80;1.45;;;13.10;99.90;;;;;;5004403;28;20514;-92
2023/10/30 08:27:28;;;;;;;3.47;1.77;;;13.20;99.90;;;;;;5022725;28;20106;-92
2023/10/30 08:29:54;;;;;;;2.83;1.52;;;13.30;99.90;;;;;;5022491;28;20049;-92
2023/10/30 08:32:20;;;;;;;2.03;1.77;;;13.30;99.90;;;;;;5022673;28;20022;-92
2023/10/30 08:34:46;;;;;;;2.58;2.10;;;13.40;99.90;;;;;;5021487;28;20053;-92
2023/10/30 08:37:11;;;;;;;5.05;1.45;;;13.50;99.90;;;;;;5021687;28;20402;-92
2023/10/30 08:39:37;;;;;;;3.13;2.30;;;13.50;99.90;;;;;;5022563;28;20033;-91
2023/10/30 08:42:03;;;;;;;4.07;1.52;;;13.60;99.90;;;;;;5022419;28;20042;-92
2023/10/30 08:44:31;;;;;;;2.58;1.45;;;13.60;99.90;;;;;;5022897;28;20041;-91
2023/10/30 08:46:57;;;;;;;;;;;13.70;99.90;;;;;;5022909;28;20491;-92
2023/10/30 08:49:22;;;;;;;3.08;1.90;;;13.70;99.90;;;;;;5022901;28;19916;-92
2023/10/30 08:51:48;;;;;;;2.35;1.83;;;13.80;99.90;;;;;;5023878;28;20077;-93
2023/10/30 08:54:14;;;;;;;2.83;1.67;;;13.80;99.90;;;;;;5023298;28;20026;-92
2023/10/30 08:56:42;;;;;;;3.50;1.80;;;13.90;99.90;;;;;;5021409;28;20022;-92
2023/10/30 08:59:08;;;;;;;2.85;2.28;;;14.00;99.90;;;;;;5012870;28;20022;-92
2023/10/30 09:01:33;;;;;;;3.35;2.17;;;14.00;99.90;;;;;;5021213;28;20603;-93
2023/10/30 09:03:59;;;;;;;3.65;2.22;;;14.10;99.90;;;;;;5020257;28;20525;-92
2023/10/30 09:06:26;;;;;;;7.00;2.67;;;14.30;99.90;;;;;;5020495;28;20022;-93
2023/10/30 09:08:52;;;;;;;3.55;1.75;;;14.30;99.90;;;;;;5020252;28;20034;-93
2023/10/30 09:11:19;;;;;;;2.38;2.17;;;14.50;99.90;;;;;;5020089;28;20262;-92
2023/10/30 09:13:45;;;;;;;3.20;2.35;;;14.60;99.90;;;;;;5020099;28;20030;-92
2023/10/30 09:16:11;;;;;;;3.00;1.35;;;14.70;99.90;;;;;;5020915;28;20077;-92
2023/10/30 09:18:37;;;;;;;3.55;1.73;;;14.80;99.90;;;;;;5022430;28;20085;-92
2023/10/30 09:21:04;;;;;;;1.95;1.58;;;14.90;99.90;;;;;;5022804;28;20022;-91
2023/10/30 09:23:29;;;;;;;2.75;2.00;;;15.00;99.90;;;;;;5023802;28;20071;-92
2023/10/30 09:25:55;;;;;;;2.70;2.28;;;15.10;99.90;;;;;;5006211;28;20049;-91
2023/10/30 09:28:21;;;;;;;2.63;2.03;;;15.30;99.90;;;;;;5006043;28;20029;-91
2023/10/30 09:30:47;;;;;;;2.83;1.30;;;15.50;99.90;;;;;;5018618;28;20522;-92
2023/10/30 09:33:13;;;;;;;3.03;2.83;;;15.60;99.90;;;;;;5038326;28;20087;-93
2023/10/30 09:35:39;;;;;;;4.03;2.30;;;15.80;99.90;;;;;;5034476;28;20026;-93
2023/10/30 09:38:05;;;;;;;2.90;1.42;;;15.80;99.90;;;;;;5025370;28;20026;-92
2023/10/30 09:40:31;;;;;;;3.65;1.85;;;15.90;99.90;;;;;;5024528;28;20026;-93
2023/10/30 09:42:58;;;;;;;2.90;1.77;;;15.90;99.90;;;;;;5026785;28;20032;-92
2023/10/30 09:45:25;;;;;;;3.97;2.55;;;15.90;99.90;;;;;;5026753;28;20046;-93
2023/10/30 09:47:58;;;;;;;2.63;2.17;;;15.90;99.90;;;;;;5026789;28;20033;-92
2023/10/30 09:50:25;;;;;;;2.90;2.00;;;15.90;99.90;;;;;;5027463;28;20052;-94
2023/10/30 09:52:53;;;;;;;3.75;2.10;;;16.00;99.90;;;;;;5008818;28;20064;-94
2023/10/30 09:55:21;;;;;;;3.08;2.33;;;16.00;99.90;;;;;;5002297;28;20022;-92
2023/10/30 09:57:48;;;;;;;2.97;2.30;;;15.90;99.90;;;;;;5019892;28;20109;-95
2023/10/30 10:00:16;;;;;;;3.35;2.55;;;15.90;99.90;;;;;;5010006;28;20025;-93
2023/10/30 10:02:43;;;;;;;2.58;1.92;;;15.80;99.90;;;;;;5027001;28;20026;-93
2023/10/30 10:05:09;;;;;;;3.85;2.28;;;15.80;99.90;;;;;;5026921;28;20064;-94
2023/10/30 10:07:36;;;;;;;3.10;2.10;;;15.80;99.90;;;;;;5007709;28;20030;-93
2023/10/30 10:10:13;;;;;;;3.63;2.03;;;15.80;99.90;;;;;;5009790;28;20030;-93
2023/10/30 10:12:38;;;;;;;3.28;2.97;;;15.80;99.90;;;;;;5026076;28;20473;-92
2023/10/30 10:15:08;;;;;;;3.63;2.35;;;15.90;99.90;;;;;;5027658;28;20032;-93
2023/10/30 10:17:50;;;;;;;2.33;2.13;;;16.10;99.90;;;;;;5010109;28;20026;-93
2023/10/30 10:20:17;;;;;;;3.45;2.28;;;16.30;99.90;;;;;;5030576;28;20030;-94
2023/10/30 10:22:43;;;;;;;4.43;2.45;;;16.30;99.90;;;;;;5027525;28;20022;-94
2023/10/30 10:25:10;;;;;;;3.45;2.33;;;16.30;99.90;;;;;;5024891;28;20045;-93
2023/10/30 10:27:40;;;;;;;4.63;2.55;;;16.30;99.90;;;;;;5030812;28;20048;-94
2023/10/30 10:30:06;;;;;;;4.10;2.55;;;16.30;99.90;;;;;;5013872;28;20034;-93
2023/10/30 10:32:32;;;;;;;4.18;3.03;;;16.20;99.90;;;;;;5025964;28;20033;-93
2023/10/30 10:35:05;;;;;;;3.17;2.83;;;16.20;99.90;;;;;;5006582;28;20033;-93
2023/10/30 10:37:32;;;;;;;4.82;3.20;;;16.30;99.90;;;;;;5025996;28;20040;-95
2023/10/30 10:39:59;;;;;;;4.30;2.88;;;16.30;99.90;;;;;;5025381;28;20029;-94
2023/10/30 10:42:30;;;;;;;4.22;3.08;;;16.40;99.90;;;;;;5009563;28;20116;-94
2023/10/30 10:44:56;;;;;;;4.32;3.25;;;16.30;99.90;;;;;;5020889;28;20033;-92
2023/10/30 10:47:23;;;;;;;3.67;2.35;;;16.30;99.90;;;;;;5026808;28;20018;-96
2023/10/30 10:50:01;;;;;;;4.57;2.65;;;16.30;99.90;;;;;;5026303;28;20026;-94
2023/10/30 10:52:30;;;;;;;4.53;3.03;;;16.20;99.90;;;;;;5023947;28;20105;-94
2023/10/30 10:55:05;;;;;;;4.85;4.35;;;16.30;99.90;;;;;;5024064;28;20041;-94
2023/10/30 10:58:14;;;;;;;4.82;3.60;;;16.20;99.90;;;;;;5010744;28;20025;-95
2023/10/30 11:01:06;;;;;;;4.82;3.72;;;16.20;99.90;;;;;;4996376;28;20129;-93
2023/10/30 11:03:32;;;;;;;4.97;3.15;;;16.20;99.90;;;;;;5026201;28;20026;-94
2023/10/30 11:05:59;;;;;;;4.85;3.13;;;16.10;99.90;;;;;;5010507;28;20021;-94
2023/10/30 11:08:50;;;;;;;5.78;3.83;;;16.10;99.90;;;;;;5010514;28;20029;-95
2023/10/30 11:11:43;;;;;;;7.20;3.50;;;16.10;99.90;;;;;;5010277;28;20589;-94
2023/10/30 11:14:22;;;;;;;4.32;3.40;;;16.10;99.90;;;;;;5028444;28;20018;-91
2023/10/30 11:17:12;;;;;;;4.13;3.13;;;16.10;99.90;;;;;;5027742;28;20022;-95
2023/10/30 11:19:37;;;;;;;4.22;3.05;;;16.00;99.90;;;;;;5017791;28;20053;-95
2023/10/30 11:22:03;;;;;;;5.45;3.53;;;16.10;99.90;;;;;;5033628;22;20029;-92
2023/10/30 11:24:38;;;;;;;5.25;3.70;;;16.10;99.90;;;;;;5038062;28;20033;-94
2023/10/30 11:27:25;;;;;;;4.85;3.75;;;16.20;99.90;;;;;;5057544;28;20029;-91
2023/10/30 11:30:13;;;;;;;4.65;3.33;;;16.10;99.90;;;;;;5056837;28;20051;-93
2023/10/30 11:32:45;;;;;;;5.28;3.72;;;16.10;99.90;;;;;;5056914;28;20085;-92
2023/10/30 11:35:11;;;;;;;4.70;3.00;;;16.10;99.90;;;;;;5040312;28;20071;-92
2023/10/30 11:37:37;;;;;;;5.35;3.90;;;16.00;99.90;;;;;;5058082;28;20029;-93
2023/10/30 11:40:10;;;;;;;5.45;4.32;;;16.00;99.90;;;;;;5039750;28;20037;-93
2023/10/30 11:42:41;;;;;;;6.80;4.10;;;16.00;99.90;;;;;;5040663;28;20040;-92
2023/10/30 11:45:26;;;;;;;6.20;4.22;;;16.00;99.90;;;;;;5053524;28;20021;-93
2023/10/30 11:48:06;;;;;;;7.97;3.60;;;16.10;99.90;;;;;;5044926;28;20045;-91
2023/10/30 11:50:36;;;;;;;5.00;3.63;;;16.10;99.90;;;;;;5036790;28;20037;-93
2023/10/30 11:53:08;;;;;;;4.82;3.22;;;16.10;99.90;;;;;;5035294;28;20076;-93
2023/10/30 11:55:43;;;;;;;6.75;4.22;;;16.10;99.90;;;;;;5046834;28;20577;-96
2023/10/30 11:58:11;;;;;;;6.38;3.60;;;16.20;99.90;;;;;;5038741;28;20090;-92
2023/10/30 12:00:49;;;;;;;4.78;3.20;;;16.20;99.90;;;;;;5056693;28;20025;-94
2023/10/30 12:03:18;;;;;;;5.13;3.22;;;16.20;99.90;;;;;;5055487;28;20017;-93
2023/10/30 12:05:44;;;;;;;7.90;3.53;;;16.20;99.90;;;;;;5039084;28;20029;-92
2023/10/30 12:08:10;;;;;;;3.35;3.05;;;16.20;99.10;;;;;;5055464;28;20103;-93
2023/10/30 12:10:39;;;;;;;4.32;2.75;;;16.20;99.30;;;;;;5050508;28;20044;-90
2023/10/30 12:13:10;;;;;;;5.85;3.67;;;16.10;99.40;;;;;;5055546;28;20025;-92
2023/10/30 12:15:36;;;;;;;5.47;4.30;;;16.20;99.90;;;;;;5037982;28;20040;-92
2023/10/30 12:18:06;;;;;;;4.55;3.50;;;16.20;99.90;;;;;;5054104;28;20048;-92
2023/10/30 12:20:32;;;;;;;4.00;3.13;;;16.10;99.90;;;;;;5037588;28;20028;-90
2023/10/30 12:22:58;;;;;;;3.35;3.00;;;16.10;99.90;;;;;;5054575;28;20037;-93
2023/10/30 12:25:23;;;;;;;4.03;2.80;;;16.10;99.90;;;;;;5056021;28;20120;-91
2023/10/30 12:27:49;;;;;;;6.15;3.67;;;16.10;99.90;;;;;;5054097;28;20441;-92
2023/10/30 12:30:16;;;;;;;7.45;4.38;;;16.20;99.90;;;;;;5054434;28;20043;-91
2023/10/30 12:32:53;;;;;;;5.63;4.43;;;16.10;99.90;;;;;;5055633;28;20398;-90
2023/10/30 12:35:19;;;;;;;3.75;3.05;;;16.20;99.90;;;;;;5054715;28;20021;-91
2023/10/30 12:37:59;;;;;;;6.20;3.47;;;16.20;99.90;;;;;;5055633;28;20040;-93
2023/10/30 12:40:25;;;;;;;4.38;2.35;;;16.20;99.90;;;;;;5048168;28;20022;-93
2023/10/30 12:42:52;;;;;;;4.60;3.17;;;16.30;99.90;;;;;;5052259;28;20043;-90
2023/10/30 12:45:19;;;;;;;;;;;16.20;99.90;;;;;;5049949;28;20029;-92
2023/10/30 12:47:47;;;;;;;4.90;2.88;;;16.30;98.80;;;;;;5053066;28;20003;-93